sensor_id;sensor_type;location;lat;lon;timestamp;P1;durP1;ratioP1;P2;durP2;ratioP2
11427;SDS011;5770;44.504;11.346;2022-12-07T00:01:33;60.08;;;34.83;;
11427;SDS011;5770;44.504;11.346;2022-12-07T00:04:01;65.03;;;35.78;;
11427;SDS011;5770;44.504;11.346;2022-12-07T00:06:33;65.03;;;35.58;;
11427;SDS011;5770;44.504;11.346;2022-12-07T00:09:02;59.47;;;35.08;;
11427;SDS011;5770;44.504;11.346;2022-12-07T00:11:30;58.47;;;35.67;;
11427;SDS011;5770;44.504;11.346;2022-12-07T00:14:00;56.88;;;34.65;;
11427;SDS011;5770;44.504;11.346;2022-12-07T00:16:29;60.15;;;35.20;;
11427;SDS011;5770;44.504;11.346;2022-12-07T00:18:58;57.63;;;34.63;;
11427;SDS011;5770;44.504;11.346;2022-12-07T00:21:27;60.60;;;36.40;;
11427;SDS011;5770;44.504;11.346;2022-12-07T00:23:55;52.63;;;34.03;;
11427;SDS011;5770;44.504;11.346;2022-12-07T00:26:24;47.97;;;33.47;;
11427;SDS011;5770;44.504;11.346;2022-12-07T00:28:54;51.05;;;33.88;;
11427;SDS011;5770;44.504;11.346;2022-12-07T00:31:24;52.17;;;33.00;;
11427;SDS011;5770;44.504;11.346;2022-12-07T00:33:52;51.28;;;32.40;;
11427;SDS011;5770;44.504;11.346;2022-12-07T00:36:20;49.10;;;31.60;;
11427;SDS011;5770;44.504;11.346;2022-12-07T00:38:50;45.45;;;29.88;;
11427;SDS011;5770;44.504;11.346;2022-12-07T00:41:19;47.10;;;30.02;;
11427;SDS011;5770;44.504;11.346;2022-12-07T00:43:52;50.35;;;31.40;;
11427;SDS011;5770;44.504;11.346;2022-12-07T00:46:20;48.28;;;32.70;;
11427;SDS011;5770;44.504;11.346;2022-12-07T00:48:49;45.85;;;29.98;;
11427;SDS011;5770;44.504;11.346;2022-12-07T00:51:18;51.05;;;32.17;;
11427;SDS011;5770;44.504;11.346;2022-12-07T00:53:46;52.83;;;31.95;;
11427;SDS011;5770;44.504;11.346;2022-12-07T00:56:14;52.33;;;32.55;;
11427;SDS011;5770;44.504;11.346;2022-12-07T00:58:42;51.28;;;31.17;;
11427;SDS011;5770;44.504;11.346;2022-12-07T01:01:10;48.20;;;31.20;;
11427;SDS011;5770;44.504;11.346;2022-12-07T01:03:37;54.70;;;32.53;;
11427;SDS011;5770;44.504;11.346;2022-12-07T01:06:06;48.03;;;31.58;;
11427;SDS011;5770;44.504;11.346;2022-12-07T01:08:34;53.97;;;32.60;;
11427;SDS011;5770;44.504;11.346;2022-12-07T01:11:02;51.00;;;31.85;;
11427;SDS011;5770;44.504;11.346;2022-12-07T01:13:30;52.45;;;31.95;;
11427;SDS011;5770;44.504;11.346;2022-12-07T01:15:59;52.42;;;31.45;;
11427;SDS011;5770;44.504;11.346;2022-12-07T01:18:27;59.08;;;31.80;;
11427;SDS011;5770;44.504;11.346;2022-12-07T01:20:58;51.67;;;32.25;;
11427;SDS011;5770;44.504;11.346;2022-12-07T01:23:28;52.90;;;33.08;;
11427;SDS011;5770;44.504;11.346;2022-12-07T01:25:56;54.42;;;32.58;;
11427;SDS011;5770;44.504;11.346;2022-12-07T01:28:23;46.80;;;30.55;;
11427;SDS011;5770;44.504;11.346;2022-12-07T01:30:57;42.65;;;27.80;;
11427;SDS011;5770;44.504;11.346;2022-12-07T01:33:26;44.08;;;28.67;;
11427;SDS011;5770;44.504;11.346;2022-12-07T01:35:55;43.65;;;29.30;;
11427;SDS011;5770;44.504;11.346;2022-12-07T01:38:28;44.35;;;28.45;;
11427;SDS011;5770;44.504;11.346;2022-12-07T01:40:56;46.55;;;29.42;;
11427;SDS011;5770;44.504;11.346;2022-12-07T01:43:24;45.00;;;29.67;;
11427;SDS011;5770;44.504;11.346;2022-12-07T01:45:55;43.20;;;27.83;;
11427;SDS011;5770;44.504;11.346;2022-12-07T01:48:24;42.78;;;27.98;;
11427;SDS011;5770;44.504;11.346;2022-12-07T01:50:53;46.28;;;29.25;;
11427;SDS011;5770;44.504;11.346;2022-12-07T01:53:22;46.35;;;29.50;;
11427;SDS011;5770;44.504;11.346;2022-12-07T01:55:53;45.67;;;29.67;;
11427;SDS011;5770;44.504;11.346;2022-12-07T01:58:21;43.83;;;28.38;;
11427;SDS011;5770;44.504;11.346;2022-12-07T02:00:49;45.10;;;28.77;;
11427;SDS011;5770;44.504;11.346;2022-12-07T02:03:18;46.15;;;28.77;;
11427;SDS011;5770;44.504;11.346;2022-12-07T02:05:46;43.88;;;28.13;;
11427;SDS011;5770;44.504;11.346;2022-12-07T02:08:14;45.00;;;27.48;;
11427;SDS011;5770;44.504;11.346;2022-12-07T02:10:42;45.45;;;28.83;;
11427;SDS011;5770;44.504;11.346;2022-12-07T02:13:11;52.22;;;30.80;;
11427;SDS011;5770;44.504;11.346;2022-12-07T02:15:44;43.30;;;27.50;;
11427;SDS011;5770;44.504;11.346;2022-12-07T02:18:14;44.70;;;28.80;;
11427;SDS011;5770;44.504;11.346;2022-12-07T02:20:44;51.92;;;29.73;;
11427;SDS011;5770;44.504;11.346;2022-12-07T02:26:10;51.17;;;29.15;;
11427;SDS011;5770;44.504;11.346;2022-12-07T02:28:51;50.42;;;29.55;;
11427;SDS011;5770;44.504;11.346;2022-12-07T02:31:20;50.15;;;28.88;;
11427;SDS011;5770;44.504;11.346;2022-12-07T02:33:49;51.42;;;29.45;;
11427;SDS011;5770;44.504;11.346;2022-12-07T02:36:18;47.67;;;28.60;;
11427;SDS011;5770;44.504;11.346;2022-12-07T02:38:49;49.80;;;29.95;;
11427;SDS011;5770;44.504;11.346;2022-12-07T02:41:22;46.08;;;28.88;;
11427;SDS011;5770;44.504;11.346;2022-12-07T02:43:53;49.15;;;29.83;;
11427;SDS011;5770;44.504;11.346;2022-12-07T02:46:22;50.72;;;31.05;;
11427;SDS011;5770;44.504;11.346;2022-12-07T02:48:50;51.33;;;28.98;;
11427;SDS011;5770;44.504;11.346;2022-12-07T02:51:18;47.47;;;30.55;;
11427;SDS011;5770;44.504;11.346;2022-12-07T02:53:48;47.13;;;28.50;;
11427;SDS011;5770;44.504;11.346;2022-12-07T02:56:19;54.90;;;28.60;;
11427;SDS011;5770;44.504;11.346;2022-12-07T02:58:58;51.05;;;28.98;;
11427;SDS011;5770;44.504;11.346;2022-12-07T03:01:30;51.22;;;30.73;;
11427;SDS011;5770;44.504;11.346;2022-12-07T03:04:12;63.60;;;31.17;;
11427;SDS011;5770;44.504;11.346;2022-12-07T03:06:49;60.17;;;31.05;;
11427;SDS011;5770;44.504;11.346;2022-12-07T03:09:25;51.50;;;31.13;;
11427;SDS011;5770;44.504;11.346;2022-12-07T03:12:00;54.80;;;31.35;;
11427;SDS011;5770;44.504;11.346;2022-12-07T03:14:30;57.42;;;30.63;;
11427;SDS011;5770;44.504;11.346;2022-12-07T03:17:00;59.67;;;30.63;;
11427;SDS011;5770;44.504;11.346;2022-12-07T03:19:33;56.22;;;30.77;;
11427;SDS011;5770;44.504;11.346;2022-12-07T03:22:01;62.13;;;32.42;;
11427;SDS011;5770;44.504;11.346;2022-12-07T03:24:31;62.03;;;34.05;;
11427;SDS011;5770;44.504;11.346;2022-12-07T03:27:01;67.63;;;33.95;;
11427;SDS011;5770;44.504;11.346;2022-12-07T03:29:33;64.30;;;32.45;;
11427;SDS011;5770;44.504;11.346;2022-12-07T03:32:03;65.97;;;33.28;;
11427;SDS011;5770;44.504;11.346;2022-12-07T03:34:32;63.35;;;32.53;;
11427;SDS011;5770;44.504;11.346;2022-12-07T03:37:02;59.67;;;31.90;;
11427;SDS011;5770;44.504;11.346;2022-12-07T03:39:33;69.07;;;34.42;;
11427;SDS011;5770;44.504;11.346;2022-12-07T03:42:01;68.18;;;34.33;;
11427;SDS011;5770;44.504;11.346;2022-12-07T03:44:33;77.63;;;35.58;;
11427;SDS011;5770;44.504;11.346;2022-12-07T03:47:02;74.65;;;35.17;;
11427;SDS011;5770;44.504;11.346;2022-12-07T03:49:32;73.43;;;34.97;;
11427;SDS011;5770;44.504;11.346;2022-12-07T03:52:08;71.68;;;35.15;;
11427;SDS011;5770;44.504;11.346;2022-12-07T03:54:40;75.85;;;35.42;;
11427;SDS011;5770;44.504;11.346;2022-12-07T03:57:09;84.38;;;36.17;;
11427;SDS011;5770;44.504;11.346;2022-12-07T03:59:38;82.43;;;37.40;;
11427;SDS011;5770;44.504;11.346;2022-12-07T04:02:07;78.53;;;36.38;;
11427;SDS011;5770;44.504;11.346;2022-12-07T04:04:34;76.38;;;36.35;;
11427;SDS011;5770;44.504;11.346;2022-12-07T04:07:03;84.28;;;37.47;;
11427;SDS011;5770;44.504;11.346;2022-12-07T04:09:30;83.22;;;38.45;;
11427;SDS011;5770;44.504;11.346;2022-12-07T04:11:58;79.72;;;36.55;;
11427;SDS011;5770;44.504;11.346;2022-12-07T04:14:25;76.30;;;36.53;;
11427;SDS011;5770;44.504;11.346;2022-12-07T04:16:55;79.30;;;37.38;;
11427;SDS011;5770;44.504;11.346;2022-12-07T04:19:23;76.68;;;37.13;;
11427;SDS011;5770;44.504;11.346;2022-12-07T04:21:50;78.10;;;38.17;;
11427;SDS011;5770;44.504;11.346;2022-12-07T04:24:18;76.07;;;36.22;;
11427;SDS011;5770;44.504;11.346;2022-12-07T04:26:46;86.20;;;37.83;;
11427;SDS011;5770;44.504;11.346;2022-12-07T04:29:14;81.25;;;38.95;;
11427;SDS011;5770;44.504;11.346;2022-12-07T04:31:43;75.20;;;37.65;;
11427;SDS011;5770;44.504;11.346;2022-12-07T04:34:12;77.88;;;38.95;;
11427;SDS011;5770;44.504;11.346;2022-12-07T04:36:40;77.97;;;38.78;;
11427;SDS011;5770;44.504;11.346;2022-12-07T04:39:09;79.30;;;37.97;;
11427;SDS011;5770;44.504;11.346;2022-12-07T04:41:40;84.63;;;37.92;;
11427;SDS011;5770;44.504;11.346;2022-12-07T04:44:08;80.13;;;40.50;;
11427;SDS011;5770;44.504;11.346;2022-12-07T04:46:35;84.80;;;38.95;;
11427;SDS011;5770;44.504;11.346;2022-12-07T04:49:02;80.50;;;38.63;;
11427;SDS011;5770;44.504;11.346;2022-12-07T04:51:31;78.70;;;37.35;;
11427;SDS011;5770;44.504;11.346;2022-12-07T04:53:59;81.40;;;39.90;;
11427;SDS011;5770;44.504;11.346;2022-12-07T04:56:29;86.43;;;38.88;;
11427;SDS011;5770;44.504;11.346;2022-12-07T04:58:56;87.25;;;40.58;;
11427;SDS011;5770;44.504;11.346;2022-12-07T05:01:24;84.88;;;40.25;;
11427;SDS011;5770;44.504;11.346;2022-12-07T05:03:51;84.25;;;37.90;;
11427;SDS011;5770;44.504;11.346;2022-12-07T05:06:19;88.35;;;40.88;;
11427;SDS011;5770;44.504;11.346;2022-12-07T05:08:48;84.93;;;41.08;;
11427;SDS011;5770;44.504;11.346;2022-12-07T05:11:15;79.72;;;39.33;;
11427;SDS011;5770;44.504;11.346;2022-12-07T05:13:56;83.90;;;39.67;;
11427;SDS011;5770;44.504;11.346;2022-12-07T05:16:24;90.22;;;41.25;;
11427;SDS011;5770;44.504;11.346;2022-12-07T05:18:51;86.65;;;39.65;;
11427;SDS011;5770;44.504;11.346;2022-12-07T05:21:18;86.10;;;40.33;;
11427;SDS011;5770;44.504;11.346;2022-12-07T05:23:47;100.88;;;42.78;;
11427;SDS011;5770;44.504;11.346;2022-12-07T05:26:14;85.28;;;40.67;;
11427;SDS011;5770;44.504;11.346;2022-12-07T05:28:42;90.18;;;42.60;;
11427;SDS011;5770;44.504;11.346;2022-12-07T05:31:09;93.05;;;42.28;;
11427;SDS011;5770;44.504;11.346;2022-12-07T05:33:37;88.20;;;42.72;;
11427;SDS011;5770;44.504;11.346;2022-12-07T05:36:05;91.75;;;43.08;;
11427;SDS011;5770;44.504;11.346;2022-12-07T05:38:33;92.55;;;43.72;;
11427;SDS011;5770;44.504;11.346;2022-12-07T05:41:02;97.18;;;44.88;;
11427;SDS011;5770;44.504;11.346;2022-12-07T05:43:30;101.00;;;44.67;;
11427;SDS011;5770;44.504;11.346;2022-12-07T05:45:57;98.80;;;43.33;;
11427;SDS011;5770;44.504;11.346;2022-12-07T05:48:25;98.70;;;43.50;;
11427;SDS011;5770;44.504;11.346;2022-12-07T05:50:54;91.15;;;44.78;;
11427;SDS011;5770;44.504;11.346;2022-12-07T05:53:21;104.60;;;46.72;;
11427;SDS011;5770;44.504;11.346;2022-12-07T05:55:49;102.15;;;45.00;;
11427;SDS011;5770;44.504;11.346;2022-12-07T05:58:18;109.13;;;46.28;;
11427;SDS011;5770;44.504;11.346;2022-12-07T06:01:03;97.25;;;44.55;;
11427;SDS011;5770;44.504;11.346;2022-12-07T06:03:30;100.55;;;45.28;;
11427;SDS011;5770;44.504;11.346;2022-12-07T06:05:57;96.05;;;45.45;;
11427;SDS011;5770;44.504;11.346;2022-12-07T06:08:25;103.47;;;45.85;;
11427;SDS011;5770;44.504;11.346;2022-12-07T06:10:52;100.03;;;45.63;;
11427;SDS011;5770;44.504;11.346;2022-12-07T06:13:35;97.15;;;45.22;;
11427;SDS011;5770;44.504;11.346;2022-12-07T06:16:02;95.90;;;45.38;;
11427;SDS011;5770;44.504;11.346;2022-12-07T06:18:30;93.22;;;46.22;;
11427;SDS011;5770;44.504;11.346;2022-12-07T06:20:57;95.97;;;47.20;;
11427;SDS011;5770;44.504;11.346;2022-12-07T06:23:25;96.23;;;46.07;;
11427;SDS011;5770;44.504;11.346;2022-12-07T06:25:52;96.78;;;48.10;;
11427;SDS011;5770;44.504;11.346;2022-12-07T06:28:19;100.05;;;48.28;;
11427;SDS011;5770;44.504;11.346;2022-12-07T06:30:48;92.25;;;46.05;;
11427;SDS011;5770;44.504;11.346;2022-12-07T06:33:23;90.47;;;44.60;;
11427;SDS011;5770;44.504;11.346;2022-12-07T06:35:50;88.72;;;44.00;;
11427;SDS011;5770;44.504;11.346;2022-12-07T06:38:21;89.82;;;44.72;;
11427;SDS011;5770;44.504;11.346;2022-12-07T06:40:53;86.45;;;43.88;;
11427;SDS011;5770;44.504;11.346;2022-12-07T06:43:20;84.53;;;44.55;;
11427;SDS011;5770;44.504;11.346;2022-12-07T06:45:49;81.07;;;43.70;;
11427;SDS011;5770;44.504;11.346;2022-12-07T06:48:17;86.18;;;43.63;;
11427;SDS011;5770;44.504;11.346;2022-12-07T06:50:44;83.95;;;44.88;;
11427;SDS011;5770;44.504;11.346;2022-12-07T06:53:12;90.72;;;44.80;;
11427;SDS011;5770;44.504;11.346;2022-12-07T06:55:41;91.82;;;46.38;;
11427;SDS011;5770;44.504;11.346;2022-12-07T06:58:08;94.38;;;46.30;;
11427;SDS011;5770;44.504;11.346;2022-12-07T07:00:36;90.03;;;46.40;;
11427;SDS011;5770;44.504;11.346;2022-12-07T07:03:04;97.35;;;46.95;;
11427;SDS011;5770;44.504;11.346;2022-12-07T07:05:32;94.18;;;48.17;;
11427;SDS011;5770;44.504;11.346;2022-12-07T07:07:59;96.78;;;48.08;;
11427;SDS011;5770;44.504;11.346;2022-12-07T07:10:27;95.07;;;47.50;;
11427;SDS011;5770;44.504;11.346;2022-12-07T07:12:55;92.07;;;46.13;;
11427;SDS011;5770;44.504;11.346;2022-12-07T07:15:22;88.07;;;45.83;;
11427;SDS011;5770;44.504;11.346;2022-12-07T07:17:50;83.15;;;44.67;;
11427;SDS011;5770;44.504;11.346;2022-12-07T07:20:18;85.65;;;44.28;;
11427;SDS011;5770;44.504;11.346;2022-12-07T07:22:48;84.70;;;43.75;;
11427;SDS011;5770;44.504;11.346;2022-12-07T07:25:18;82.65;;;43.22;;
11427;SDS011;5770;44.504;11.346;2022-12-07T07:27:46;83.50;;;43.35;;
11427;SDS011;5770;44.504;11.346;2022-12-07T07:30:13;87.03;;;44.88;;
11427;SDS011;5770;44.504;11.346;2022-12-07T07:32:41;87.45;;;45.67;;
11427;SDS011;5770;44.504;11.346;2022-12-07T07:35:09;81.75;;;44.33;;
11427;SDS011;5770;44.504;11.346;2022-12-07T07:37:38;80.03;;;42.92;;
11427;SDS011;5770;44.504;11.346;2022-12-07T07:40:06;79.93;;;43.38;;
11427;SDS011;5770;44.504;11.346;2022-12-07T07:42:36;85.82;;;42.30;;
11427;SDS011;5770;44.504;11.346;2022-12-07T07:45:03;78.03;;;41.63;;
11427;SDS011;5770;44.504;11.346;2022-12-07T07:47:34;83.57;;;42.63;;
11427;SDS011;5770;44.504;11.346;2022-12-07T07:50:01;74.78;;;41.03;;
11427;SDS011;5770;44.504;11.346;2022-12-07T07:52:29;69.22;;;39.47;;
11427;SDS011;5770;44.504;11.346;2022-12-07T07:54:59;70.53;;;40.17;;
11427;SDS011;5770;44.504;11.346;2022-12-07T07:57:26;71.47;;;38.88;;
11427;SDS011;5770;44.504;11.346;2022-12-07T07:59:53;74.80;;;39.97;;
11427;SDS011;5770;44.504;11.346;2022-12-07T08:02:21;72.55;;;38.63;;
11427;SDS011;5770;44.504;11.346;2022-12-07T08:04:48;66.35;;;38.10;;
11427;SDS011;5770;44.504;11.346;2022-12-07T08:07:19;70.20;;;37.65;;
11427;SDS011;5770;44.504;11.346;2022-12-07T08:09:46;60.33;;;36.17;;
11427;SDS011;5770;44.504;11.346;2022-12-07T08:12:15;60.35;;;34.53;;
11427;SDS011;5770;44.504;11.346;2022-12-07T08:14:42;60.95;;;36.25;;
11427;SDS011;5770;44.504;11.346;2022-12-07T08:17:09;57.85;;;36.13;;
11427;SDS011;5770;44.504;11.346;2022-12-07T08:19:39;62.63;;;34.90;;
11427;SDS011;5770;44.504;11.346;2022-12-07T08:22:06;59.22;;;36.28;;
11427;SDS011;5770;44.504;11.346;2022-12-07T08:24:33;56.47;;;34.65;;
11427;SDS011;5770;44.504;11.346;2022-12-07T08:27:01;51.67;;;33.58;;
11427;SDS011;5770;44.504;11.346;2022-12-07T08:29:30;53.10;;;32.08;;
11427;SDS011;5770;44.504;11.346;2022-12-07T08:31:57;49.38;;;31.90;;
11427;SDS011;5770;44.504;11.346;2022-12-07T08:34:26;48.75;;;33.15;;
11427;SDS011;5770;44.504;11.346;2022-12-07T08:36:53;51.10;;;32.92;;
11427;SDS011;5770;44.504;11.346;2022-12-07T08:39:21;51.40;;;32.20;;
11427;SDS011;5770;44.504;11.346;2022-12-07T08:41:48;53.65;;;33.20;;
11427;SDS011;5770;44.504;11.346;2022-12-07T08:44:16;50.83;;;32.40;;
11427;SDS011;5770;44.504;11.346;2022-12-07T08:46:46;50.25;;;32.20;;
11427;SDS011;5770;44.504;11.346;2022-12-07T08:49:15;49.58;;;30.25;;
11427;SDS011;5770;44.504;11.346;2022-12-07T08:51:43;57.72;;;32.17;;
11427;SDS011;5770;44.504;11.346;2022-12-07T08:54:12;56.00;;;35.10;;
11427;SDS011;5770;44.504;11.346;2022-12-07T08:56:42;56.08;;;35.55;;
11427;SDS011;5770;44.504;11.346;2022-12-07T08:59:10;56.78;;;35.58;;
11427;SDS011;5770;44.504;11.346;2022-12-07T09:01:39;58.88;;;33.40;;
11427;SDS011;5770;44.504;11.346;2022-12-07T09:04:08;57.20;;;34.92;;
11427;SDS011;5770;44.504;11.346;2022-12-07T09:06:36;55.88;;;34.83;;
11427;SDS011;5770;44.504;11.346;2022-12-07T09:09:03;57.25;;;35.28;;
11427;SDS011;5770;44.504;11.346;2022-12-07T09:11:35;53.33;;;35.25;;
11427;SDS011;5770;44.504;11.346;2022-12-07T09:14:04;58.22;;;34.95;;
11427;SDS011;5770;44.504;11.346;2022-12-07T09:16:31;57.90;;;36.78;;
11427;SDS011;5770;44.504;11.346;2022-12-07T09:18:59;55.92;;;35.15;;
11427;SDS011;5770;44.504;11.346;2022-12-07T09:21:27;56.45;;;36.05;;
11427;SDS011;5770;44.504;11.346;2022-12-07T09:23:55;56.95;;;35.50;;
11427;SDS011;5770;44.504;11.346;2022-12-07T09:26:22;51.78;;;35.38;;
11427;SDS011;5770;44.504;11.346;2022-12-07T09:28:50;51.90;;;35.58;;
11427;SDS011;5770;44.504;11.346;2022-12-07T09:31:17;54.33;;;36.15;;
11427;SDS011;5770;44.504;11.346;2022-12-07T09:33:44;51.13;;;34.67;;
11427;SDS011;5770;44.504;11.346;2022-12-07T09:36:12;46.40;;;33.60;;
11427;SDS011;5770;44.504;11.346;2022-12-07T09:38:41;43.13;;;31.95;;
11427;SDS011;5770;44.504;11.346;2022-12-07T09:41:09;48.08;;;34.25;;
11427;SDS011;5770;44.504;11.346;2022-12-07T09:43:36;45.63;;;34.25;;
11427;SDS011;5770;44.504;11.346;2022-12-07T09:46:06;48.75;;;34.33;;
11427;SDS011;5770;44.504;11.346;2022-12-07T09:48:33;47.95;;;34.08;;
11427;SDS011;5770;44.504;11.346;2022-12-07T09:51:09;46.53;;;34.58;;
11427;SDS011;5770;44.504;11.346;2022-12-07T09:53:42;52.58;;;35.10;;
11427;SDS011;5770;44.504;11.346;2022-12-07T09:56:10;43.65;;;32.88;;
11427;SDS011;5770;44.504;11.346;2022-12-07T09:58:38;50.20;;;34.72;;
11427;SDS011;5770;44.504;11.346;2022-12-07T10:01:09;45.42;;;33.80;;
11427;SDS011;5770;44.504;11.346;2022-12-07T10:03:38;48.35;;;34.40;;
11427;SDS011;5770;44.504;11.346;2022-12-07T10:06:06;45.40;;;35.38;;
11427;SDS011;5770;44.504;11.346;2022-12-07T10:08:34;47.83;;;34.53;;
11427;SDS011;5770;44.504;11.346;2022-12-07T10:11:03;48.80;;;36.15;;
11427;SDS011;5770;44.504;11.346;2022-12-07T10:13:36;45.58;;;33.53;;
11427;SDS011;5770;44.504;11.346;2022-12-07T10:16:04;43.42;;;32.45;;
11427;SDS011;5770;44.504;11.346;2022-12-07T10:18:40;42.78;;;33.58;;
11427;SDS011;5770;44.504;11.346;2022-12-07T10:21:12;43.63;;;32.83;;
11427;SDS011;5770;44.504;11.346;2022-12-07T10:23:40;43.08;;;33.63;;
11427;SDS011;5770;44.504;11.346;2022-12-07T10:26:26;44.55;;;34.70;;
11427;SDS011;5770;44.504;11.346;2022-12-07T10:28:58;45.03;;;32.83;;
11427;SDS011;5770;44.504;11.346;2022-12-07T10:31:26;44.80;;;34.55;;
11427;SDS011;5770;44.504;11.346;2022-12-07T10:33:54;40.25;;;33.45;;
11427;SDS011;5770;44.504;11.346;2022-12-07T10:36:23;42.25;;;33.80;;
11427;SDS011;5770;44.504;11.346;2022-12-07T10:38:52;44.22;;;34.03;;
11427;SDS011;5770;44.504;11.346;2022-12-07T10:41:21;45.42;;;34.28;;
11427;SDS011;5770;44.504;11.346;2022-12-07T10:43:50;42.40;;;33.42;;
11427;SDS011;5770;44.504;11.346;2022-12-07T10:52:25;40.78;;;32.90;;
11427;SDS011;5770;44.504;11.346;2022-12-07T10:55:03;41.72;;;32.47;;
11427;SDS011;5770;44.504;11.346;2022-12-07T10:57:39;40.75;;;33.13;;
11427;SDS011;5770;44.504;11.346;2022-12-07T11:00:10;41.10;;;32.10;;
11427;SDS011;5770;44.504;11.346;2022-12-07T11:02:47;42.53;;;33.40;;
11427;SDS011;5770;44.504;11.346;2022-12-07T11:05:21;38.22;;;32.60;;
11427;SDS011;5770;44.504;11.346;2022-12-07T11:07:54;40.67;;;32.63;;
11427;SDS011;5770;44.504;11.346;2022-12-07T11:10:24;39.40;;;32.72;;
11427;SDS011;5770;44.504;11.346;2022-12-07T11:13:01;41.75;;;31.55;;
11427;SDS011;5770;44.504;11.346;2022-12-07T11:15:33;38.47;;;31.90;;
11427;SDS011;5770;44.504;11.346;2022-12-07T11:18:06;41.97;;;31.45;;
11427;SDS011;5770;44.504;11.346;2022-12-07T11:20:36;36.92;;;30.38;;
11427;SDS011;5770;44.504;11.346;2022-12-07T11:23:11;39.92;;;31.00;;
11427;SDS011;5770;44.504;11.346;2022-12-07T11:25:46;39.08;;;30.63;;
11427;SDS011;5770;44.504;11.346;2022-12-07T11:28:21;38.97;;;31.20;;
11427;SDS011;5770;44.504;11.346;2022-12-07T11:30:55;35.95;;;30.20;;
11427;SDS011;5770;44.504;11.346;2022-12-07T11:33:26;42.08;;;31.40;;
11427;SDS011;5770;44.504;11.346;2022-12-07T11:35:57;36.88;;;29.75;;
11427;SDS011;5770;44.504;11.346;2022-12-07T11:38:32;37.20;;;31.25;;
11427;SDS011;5770;44.504;11.346;2022-12-07T11:41:05;38.55;;;31.02;;
11427;SDS011;5770;44.504;11.346;2022-12-07T11:43:49;35.45;;;30.40;;
11427;SDS011;5770;44.504;11.346;2022-12-07T11:46:17;35.17;;;29.80;;
11427;SDS011;5770;44.504;11.346;2022-12-07T11:48:46;36.30;;;31.55;;
11427;SDS011;5770;44.504;11.346;2022-12-07T11:51:37;39.17;;;32.35;;
11427;SDS011;5770;44.504;11.346;2022-12-07T11:54:19;36.17;;;31.92;;
11427;SDS011;5770;44.504;11.346;2022-12-07T11:56:55;46.00;;;32.03;;
11427;SDS011;5770;44.504;11.346;2022-12-07T11:59:36;41.30;;;31.25;;
11427;SDS011;5770;44.504;11.346;2022-12-07T12:02:14;40.63;;;32.67;;
11427;SDS011;5770;44.504;11.346;2022-12-07T12:04:49;39.72;;;31.50;;
11427;SDS011;5770;44.504;11.346;2022-12-07T12:07:21;39.55;;;32.28;;
11427;SDS011;5770;44.504;11.346;2022-12-07T12:09:49;40.08;;;32.40;;
11427;SDS011;5770;44.504;11.346;2022-12-07T12:12:24;42.35;;;32.70;;
11427;SDS011;5770;44.504;11.346;2022-12-07T12:15:06;37.88;;;32.45;;
11427;SDS011;5770;44.504;11.346;2022-12-07T12:17:50;39.00;;;33.58;;
11427;SDS011;5770;44.504;11.346;2022-12-07T12:20:23;41.33;;;33.83;;
11427;SDS011;5770;44.504;11.346;2022-12-07T12:23:09;38.28;;;32.85;;
11427;SDS011;5770;44.504;11.346;2022-12-07T12:25:41;37.08;;;32.08;;
11427;SDS011;5770;44.504;11.346;2022-12-07T12:28:18;43.38;;;34.72;;
11427;SDS011;5770;44.504;11.346;2022-12-07T12:33:33;37.67;;;33.58;;
11427;SDS011;5770;44.504;11.346;2022-12-07T12:39:07;37.90;;;33.65;;
11427;SDS011;5770;44.504;11.346;2022-12-07T12:44:40;36.72;;;32.47;;
11427;SDS011;5770;44.504;11.346;2022-12-07T12:52:59;34.95;;;31.17;;
11427;SDS011;5770;44.504;11.346;2022-12-07T12:58:27;41.08;;;32.63;;
11427;SDS011;5770;44.504;11.346;2022-12-07T13:04:35;39.25;;;33.13;;
11427;SDS011;5770;44.504;11.346;2022-12-07T13:07:13;39.08;;;32.47;;
11427;SDS011;5770;44.504;11.346;2022-12-07T13:10:08;39.00;;;32.90;;
11427;SDS011;5770;44.504;11.346;2022-12-07T13:12:54;36.72;;;32.83;;
11427;SDS011;5770;44.504;11.346;2022-12-07T13:15:33;39.25;;;32.95;;
11427;SDS011;5770;44.504;11.346;2022-12-07T13:18:04;40.80;;;34.50;;
11427;SDS011;5770;44.504;11.346;2022-12-07T13:23:30;36.03;;;32.08;;
11427;SDS011;5770;44.504;11.346;2022-12-07T13:26:08;39.10;;;33.10;;
11427;SDS011;5770;44.504;11.346;2022-12-07T13:28:38;36.20;;;32.30;;
11427;SDS011;5770;44.504;11.346;2022-12-07T13:33:56;35.72;;;31.77;;
11427;SDS011;5770;44.504;11.346;2022-12-07T13:36:25;36.13;;;31.48;;
11427;SDS011;5770;44.504;11.346;2022-12-07T13:38:57;38.38;;;31.80;;
11427;SDS011;5770;44.504;11.346;2022-12-07T13:41:28;36.47;;;32.63;;
11427;SDS011;5770;44.504;11.346;2022-12-07T13:44:02;35.47;;;31.65;;
11427;SDS011;5770;44.504;11.346;2022-12-07T13:46:42;35.40;;;31.63;;
11427;SDS011;5770;44.504;11.346;2022-12-07T13:49:23;34.80;;;30.73;;
11427;SDS011;5770;44.504;11.346;2022-12-07T13:52:12;35.78;;;31.88;;
11427;SDS011;5770;44.504;11.346;2022-12-07T13:54:43;35.53;;;31.70;;
11427;SDS011;5770;44.504;11.346;2022-12-07T13:57:15;35.75;;;31.85;;
11427;SDS011;5770;44.504;11.346;2022-12-07T13:59:45;34.70;;;30.63;;
11427;SDS011;5770;44.504;11.346;2022-12-07T14:05:09;36.03;;;32.22;;
11427;SDS011;5770;44.504;11.346;2022-12-07T14:07:52;36.25;;;31.42;;
11427;SDS011;5770;44.504;11.346;2022-12-07T14:10:27;37.42;;;32.30;;
11427;SDS011;5770;44.504;11.346;2022-12-07T14:12:58;36.08;;;30.42;;
11427;SDS011;5770;44.504;11.346;2022-12-07T14:15:27;35.10;;;31.25;;
11427;SDS011;5770;44.504;11.346;2022-12-07T14:17:56;35.90;;;30.40;;
11427;SDS011;5770;44.504;11.346;2022-12-07T14:20:29;37.90;;;31.02;;
11427;SDS011;5770;44.504;11.346;2022-12-07T14:22:56;35.47;;;31.60;;
11427;SDS011;5770;44.504;11.346;2022-12-07T14:25:24;31.70;;;28.40;;
11427;SDS011;5770;44.504;11.346;2022-12-07T14:27:53;31.67;;;28.48;;
11427;SDS011;5770;44.504;11.346;2022-12-07T14:30:25;33.47;;;29.80;;
11427;SDS011;5770;44.504;11.346;2022-12-07T14:32:54;33.05;;;29.50;;
11427;SDS011;5770;44.504;11.346;2022-12-07T14:35:22;31.80;;;28.25;;
11427;SDS011;5770;44.504;11.346;2022-12-07T14:37:49;35.63;;;29.35;;
11427;SDS011;5770;44.504;11.346;2022-12-07T14:40:17;32.40;;;28.90;;
11427;SDS011;5770;44.504;11.346;2022-12-07T14:42:46;32.42;;;27.42;;
11427;SDS011;5770;44.504;11.346;2022-12-07T14:45:16;30.48;;;27.23;;
11427;SDS011;5770;44.504;11.346;2022-12-07T14:47:46;31.98;;;28.63;;
11427;SDS011;5770;44.504;11.346;2022-12-07T14:50:14;34.08;;;28.77;;
11427;SDS011;5770;44.504;11.346;2022-12-07T14:52:43;31.77;;;27.73;;
11427;SDS011;5770;44.504;11.346;2022-12-07T14:55:17;32.97;;;28.30;;
11427;SDS011;5770;44.504;11.346;2022-12-07T14:57:48;37.33;;;29.45;;
11427;SDS011;5770;44.504;11.346;2022-12-07T15:00:16;33.35;;;29.40;;
11427;SDS011;5770;44.504;11.346;2022-12-07T15:02:46;35.58;;;27.95;;
11427;SDS011;5770;44.504;11.346;2022-12-07T15:05:14;35.33;;;28.52;;
11427;SDS011;5770;44.504;11.346;2022-12-07T15:07:42;31.85;;;28.38;;
11427;SDS011;5770;44.504;11.346;2022-12-07T15:10:13;30.83;;;27.52;;
11427;SDS011;5770;44.504;11.346;2022-12-07T15:12:41;29.70;;;26.50;;
11427;SDS011;5770;44.504;11.346;2022-12-07T15:15:09;30.25;;;27.05;;
11427;SDS011;5770;44.504;11.346;2022-12-07T15:17:37;32.03;;;26.95;;